BEV weather

Beersheba (Teyman) Airport
Beersheba, Southern District, Israel

Public forecast

Using degrees Celsius for public forecast. Weather courtesy of forecast.io.

METAR (pilot weather report)

Closest report is Ben Gurion International Airport, 44.3 nm (82.0 km) N. Retrieved 2019/07/17 14:20 UTC (0 seconds ago):

LLBG 171420Z 27008KT 240V300 CAVOK 32/24 Q1004 NOSIG

TAF (pilot weather forecast)

Forecast is more than 12 hours old.

Closest forecast is El Gora Airport, 33.2 nm (61.5 km) WSW. Retrieved 2019/06/09 06:00 UTC (1 month ago):

TAF HEGR 090500Z 0906/1012 23008KT 9999 SCT025